Terminal Aerodrome Forecast
Issued by NWS

Home | Current Version | Previous Version | Text Only | Print | Product List | Glossary On
Versions: 1 2 3 4 5 6 7 8 9 10 11 12 13 14 15 16 17 18 19 20 21 22 23 24 25
000
FTUS42 KTBW 211351 AAA
TAFPIE
TAF AMD
KPIE 211351Z 2114/2212 12010KT P6SM VCSH SCT015 BKN070
      TEMPO 2114/2116 BKN015
     FM211600 13010KT P6SM VCTS SCT025CB BKN040
      TEMPO 2116/2119 3SM TSRA BKN025CB
     FM211900 13010KT 6SM -SHRA VCTS SCT010 BKN025CB
     FM212200 12008KT P6SM VCSH SCT010 BKN025
     FM220100 10007KT P6SM SCT025 BKN060=

USA.gov is the U.S. government's official web portal to all federal, state and local government web resources and services.